»·PEaware :: SGL483 KLAS-KSBD

SGL483 :: KLAS-KSBD

FLIGHT INFORMATION

Flight Status: Arrived
Operator: Unknown
More flights by this operator :: More flights under this callsign
Pilot: Matthew M. (8235)
Aircraft: ILYUSHIN IL-76/78/82 GAJARAJ
(IL76)
More flights by this aircraft type
Origin: KLAS McCarran Intl
United States
Destination: KSBD San Bernardino Intl
United States
More flights between these airports :: More routes between these airports
Route: BOACH8 HEC ZIGGY7
File this flight plan on PilotEdge
Remarks:
Altitude:
(Current/Filed)
20,000ft
Speed:
(Current/Filed)
300kts
Departed: 24-Jul-20 07:01 PM
Arrived: 24-Jul-20 07:40 PM
Distance/Time
Traveled:
157nm/0:39
Distance/Time
To Go:
Arrived

Flight Plot

Page will automatically refresh every two minutes.

Flight plan parsing failed; only flown route is shown


Map Options




Map Legend


Flown Route
Filed Route
Departure Airport
Arrival Airport
Navaid (VOR, NDB)
Fix

Horizontal Profiles

Position Reports

Time Latitude Longitude Heading Altitude Ground
Speed
24-Jul-20 18:44 36.089983 -115.166145 179 2145ft 0kts
24-Jul-20 18:45 36.089983 -115.166145 179 2145ft 0kts
24-Jul-20 18:46 36.089983 -115.166145 179 2145ft 0kts
24-Jul-20 18:47 36.089983 -115.166145 179 2145ft 0kts
24-Jul-20 18:48 36.089983 -115.166145 179 2145ft 0kts
24-Jul-20 18:49 36.089983 -115.166145 179 2145ft 0kts
24-Jul-20 18:50 36.089983 -115.166145 179 2145ft 0kts
24-Jul-20 18:51 36.089983 -115.166145 179 2145ft 0kts
24-Jul-20 18:52 36.089983 -115.166145 179 2145ft 0kts
24-Jul-20 18:53 36.089983 -115.166145 179 2145ft 0kts
24-Jul-20 18:54 36.089519 -115.164733 60 2141ft 16kts
24-Jul-20 18:55 36.096072 -115.160874 27 2113ft 29kts
24-Jul-20 18:56 36.099849 -115.157624 78 2097ft 0kts
24-Jul-20 18:57 36.099849 -115.157624 78 2097ft 0kts
24-Jul-20 18:58 36.099860 -115.157353 97 2096ft 7kts
24-Jul-20 18:59 36.099091 -115.156723 210 2095ft 18kts
24-Jul-20 19:00 36.076840 -115.169476 203 2198ft 140kts
24-Jul-20 19:01 36.042708 -115.189364 207 2945ft 138kts
24-Jul-20 19:02 36.008003 -115.220213 240 3518ft 182kts
24-Jul-20 19:03 35.980075 -115.281973 240 4538ft 229kts
24-Jul-20 19:04 35.919733 -115.307196 187 6819ft 249kts
24-Jul-20 19:05 35.848407 -115.313661 176 9037ft 273kts
24-Jul-20 19:06 35.769766 -115.305114 175 11151ft 299kts
24-Jul-20 19:07 35.682979 -115.303141 205 13007ft 332kts
24-Jul-20 19:08 35.612925 -115.382911 226 15127ft 359kts
24-Jul-20 19:09 35.543944 -115.475382 226 17349ft 378kts
24-Jul-20 19:10 35.472093 -115.571623 226 19308ft 388kts
24-Jul-20 19:11 35.398668 -115.669696 225 19845ft 390kts
24-Jul-20 19:12 35.324862 -115.768008 225 19920ft 389kts
24-Jul-20 19:13 35.251337 -115.865662 225 19919ft 389kts
24-Jul-20 19:14 35.177548 -115.962318 225 19922ft 394kts
24-Jul-20 19:15 35.100426 -116.061168 225 19918ft 402kts
24-Jul-20 19:16 35.023000 -116.160031 225 19919ft 402kts
24-Jul-20 19:17 34.947111 -116.256597 226 19477ft 380kts
24-Jul-20 19:18 34.876264 -116.346561 226 18932ft 362kts
24-Jul-20 19:19 34.806878 -116.434492 226 18435ft 362kts
24-Jul-20 19:20 34.736942 -116.522838 226 17927ft 360kts
24-Jul-20 19:21 34.667669 -116.610115 226 17400ft 359kts
24-Jul-20 19:22 34.598664 -116.696829 226 16694ft 356kts
24-Jul-20 19:23 34.529939 -116.782974 226 15994ft 353kts
24-Jul-20 19:24 34.462038 -116.867873 225 14855ft 348kts
24-Jul-20 19:25 34.395033 -116.951480 225 13649ft 342kts
24-Jul-20 19:26 34.329269 -117.033294 224 12446ft 337kts
24-Jul-20 19:27 34.242689 -117.058540 181 11043ft 324kts
24-Jul-20 19:28 34.164385 -117.053314 162 9741ft 255kts
24-Jul-20 19:29 34.096571 -117.025352 161 9751ft 258kts
24-Jul-20 19:30 34.028713 -116.996907 161 9628ft 261kts
24-Jul-20 19:31 33.964070 -116.969180 161 8562ft 236kts
24-Jul-20 19:32 33.932438 -117.011466 302 7429ft 239kts
24-Jul-20 19:33 33.990622 -117.043178 331 6705ft 192kts
24-Jul-20 19:34 34.030471 -117.077504 314 4795ft 165kts
24-Jul-20 19:35 34.062373 -117.112160 313 3043ft 153kts
24-Jul-20 19:36 34.089985 -117.144854 309 2874ft 149kts
24-Jul-20 19:37 34.106931 -117.190676 262 2070ft 152kts
24-Jul-20 19:38 34.096000 -117.232382 249 1145ft 93kts
24-Jul-20 19:39 34.094054 -117.242048 3 1145ft 11kts
24-Jul-20 19:40 34.098012 -117.242377 301 1145ft 2kts

Navigation Log

Ident Type
Flight plan parsing failed, navigation log unavailable